createdAt,value
2018-01-04T00:01:03.573Z,21.03
2018-01-04T00:03:29.578Z,21.03
2018-01-04T00:05:55.549Z,21.05
2018-01-04T00:08:21.504Z,21.05
2018-01-04T00:10:47.453Z,20.92
2018-01-04T00:13:13.413Z,20.91
2018-01-04T00:15:39.343Z,20.90
2018-01-04T00:18:05.293Z,20.92
2018-01-04T00:20:31.382Z,20.91
2018-01-04T00:22:57.352Z,20.90
2018-01-04T00:25:23.310Z,20.87
2018-01-04T00:27:49.361Z,20.89
2018-01-04T00:30:15.317Z,20.93
2018-01-04T00:32:41.261Z,20.93
2018-01-04T00:35:07.214Z,20.89
2018-01-04T00:37:33.162Z,20.93
2018-01-04T00:39:59.101Z,20.90
2018-01-04T00:42:25.076Z,20.86
2018-01-04T00:44:51.034Z,20.87
2018-01-04T00:47:16.989Z,20.88
2018-01-04T00:49:42.922Z,20.90
2018-01-04T00:52:08.889Z,20.91
2018-01-04T00:54:34.853Z,20.86
2018-01-04T00:57:00.794Z,20.79
2018-01-04T00:59:26.755Z,20.78
2018-01-04T01:01:52.710Z,20.72
2018-01-04T01:04:18.744Z,20.78
2018-01-04T01:06:44.689Z,20.77
2018-01-04T01:09:10.654Z,20.75
2018-01-04T01:11:36.618Z,20.79
2018-01-04T01:14:02.577Z,20.81
2018-01-04T01:16:28.521Z,20.82
2018-01-04T01:18:54.459Z,20.82
2018-01-04T01:21:20.401Z,20.83
2018-01-04T01:23:46.354Z,20.77
2018-01-04T01:26:12.293Z,20.79
2018-01-04T01:28:38.241Z,20.75
2018-01-04T01:31:04.202Z,20.78
2018-01-04T01:33:30.170Z,20.78
2018-01-04T01:35:56.152Z,20.78
2018-01-04T01:38:22.111Z,20.78
2018-01-04T01:40:48.065Z,20.80
2018-01-04T01:43:14.061Z,20.76
2018-01-04T01:45:39.997Z,20.76
2018-01-04T01:48:05.936Z,20.75
2018-01-04T01:50:32.010Z,20.76
2018-01-04T01:52:57.964Z,20.69
2018-01-04T01:55:23.898Z,20.72
2018-01-04T01:57:49.885Z,20.70
2018-01-04T02:00:15.905Z,20.71
2018-01-04T02:02:41.930Z,20.72
2018-01-04T02:05:07.888Z,20.69
2018-01-04T02:07:34.166Z,20.70
2018-01-04T02:10:00.102Z,20.73
2018-01-04T02:12:26.045Z,20.74
2018-01-04T02:14:51.988Z,20.71
2018-01-04T02:17:18.393Z,20.70
2018-01-04T02:19:44.342Z,20.69
2018-01-04T02:22:10.315Z,20.62
2018-01-04T02:24:36.261Z,20.65
2018-01-04T02:27:02.209Z,20.70
2018-01-04T02:29:28.165Z,20.73
2018-01-04T02:31:54.097Z,20.67
2018-01-04T02:34:20.106Z,20.64
2018-01-04T02:36:46.058Z,20.66
2018-01-04T02:39:11.994Z,20.65
2018-01-04T02:41:38.026Z,20.65
2018-01-04T02:44:03.985Z,20.63
2018-01-04T02:46:29.929Z,20.66
2018-01-04T02:48:55.890Z,20.63
2018-01-04T02:51:21.850Z,20.64
2018-01-04T02:53:47.814Z,20.61
2018-01-04T02:56:13.769Z,20.66
2018-01-04T02:58:39.733Z,20.62
2018-01-04T03:01:06.714Z,20.61
2018-01-04T03:03:32.649Z,20.62
2018-01-04T03:05:58.589Z,20.68
2018-01-04T03:08:24.536Z,20.62
2018-01-04T03:10:50.496Z,20.68
2018-01-04T03:13:16.438Z,20.60
2018-01-04T03:15:42.425Z,20.59
2018-01-04T03:18:08.469Z,20.57
2018-01-04T03:20:34.425Z,20.64
2018-01-04T03:23:00.378Z,20.58
2018-01-04T03:25:26.357Z,20.61
2018-01-04T03:27:52.329Z,20.54
2018-01-04T03:30:18.317Z,20.54
2018-01-04T03:32:44.255Z,20.55
2018-01-04T03:35:10.198Z,20.55
2018-01-04T03:37:36.187Z,20.53
2018-01-04T03:40:02.141Z,20.57
2018-01-04T03:42:28.077Z,20.58
2018-01-04T03:44:54.021Z,20.60
2018-01-04T03:47:19.980Z,20.58
2018-01-04T03:49:45.921Z,20.62
2018-01-04T03:52:11.856Z,20.69
2018-01-04T03:54:37.802Z,20.71
2018-01-04T03:57:03.754Z,20.72
2018-01-04T03:59:29.714Z,20.85
2018-01-04T04:01:55.663Z,20.89
2018-01-04T04:04:21.666Z,20.96
2018-01-04T04:06:47.678Z,20.96
2018-01-04T04:09:13.625Z,21.05
2018-01-04T04:11:39.565Z,21.04
2018-01-04T04:14:05.537Z,21.07
2018-01-04T04:16:31.474Z,21.02
2018-01-04T04:18:57.421Z,21.11
2018-01-04T04:21:23.384Z,21.06
2018-01-04T04:23:49.321Z,21.09
2018-01-04T04:26:15.287Z,21.08
2018-01-04T04:28:41.229Z,21.18
2018-01-04T04:31:07.189Z,21.20
2018-01-04T04:33:33.145Z,21.18
2018-01-04T04:35:59.086Z,21.24
2018-01-04T04:38:25.027Z,21.23
2018-01-04T04:40:50.969Z,21.23
2018-01-04T04:43:16.913Z,21.22
2018-01-04T04:45:42.857Z,21.28
2018-01-04T04:48:08.823Z,21.26
2018-01-04T04:50:34.777Z,21.24
2018-01-04T04:53:00.718Z,21.38
2018-01-04T04:55:26.666Z,21.39
2018-01-04T04:57:52.681Z,21.30
2018-01-04T05:00:18.622Z,21.29
2018-01-04T05:02:44.565Z,21.25
2018-01-04T05:05:10.522Z,21.24
2018-01-04T05:07:36.470Z,21.19
2018-01-04T05:10:02.437Z,21.22
2018-01-04T05:12:28.375Z,21.24
2018-01-04T05:14:54.373Z,21.29
2018-01-04T05:17:20.329Z,21.26
2018-01-04T05:19:46.330Z,21.33
2018-01-04T05:22:12.292Z,21.34
2018-01-04T05:24:38.225Z,21.31
2018-01-04T05:27:04.167Z,21.33
2018-01-04T05:29:31.178Z,21.38
2018-01-04T05:31:57.137Z,21.31
2018-01-04T05:34:23.089Z,21.44
2018-01-04T05:36:49.073Z,21.58
2018-01-04T05:39:15.013Z,21.45
2018-01-04T05:41:40.961Z,21.49
2018-01-04T05:44:06.921Z,21.44
2018-01-04T05:46:32.872Z,21.38
2018-01-04T05:48:58.838Z,21.48
2018-01-04T05:51:24.782Z,21.44
2018-01-04T05:53:50.732Z,21.44
2018-01-04T05:56:16.666Z,21.44
2018-01-04T05:58:42.697Z,21.48
2018-01-04T06:01:08.645Z,21.40
2018-01-04T06:03:34.588Z,21.45
2018-01-04T06:06:00.539Z,21.39
2018-01-04T06:08:26.485Z,21.38
2018-01-04T06:10:52.438Z,21.38
2018-01-04T06:13:18.398Z,21.43
2018-01-04T06:15:44.366Z,21.36
2018-01-04T06:18:10.349Z,21.42
2018-01-04T06:20:36.309Z,21.34
2018-01-04T06:23:02.257Z,21.34
2018-01-04T06:25:28.201Z,21.51
2018-01-04T06:27:54.210Z,21.47
2018-01-04T06:30:20.153Z,21.45
2018-01-04T06:32:46.128Z,21.39
2018-01-04T06:35:12.095Z,21.39
2018-01-04T06:37:38.062Z,21.41
2018-01-04T06:40:04.191Z,21.40
2018-01-04T06:42:30.158Z,21.39
2018-01-04T06:44:56.108Z,21.38
2018-01-04T06:47:22.066Z,21.41
2018-01-04T06:49:47.997Z,21.41
2018-01-04T06:52:13.937Z,21.42
2018-01-04T06:54:39.906Z,21.45
2018-01-04T06:57:05.873Z,21.44
2018-01-04T06:59:31.825Z,21.40
2018-01-04T07:01:57.805Z,21.46
2018-01-04T07:04:23.740Z,21.46
2018-01-04T07:06:49.709Z,21.47
2018-01-04T07:09:15.673Z,21.41
2018-01-04T07:11:41.635Z,21.50
2018-01-04T07:14:07.594Z,21.52
2018-01-04T07:16:33.537Z,21.54
2018-01-04T07:18:59.657Z,21.50
2018-01-04T07:21:25.613Z,21.47
2018-01-04T07:23:51.585Z,21.46
2018-01-04T07:26:17.589Z,21.55
2018-01-04T07:28:43.554Z,21.49
2018-01-04T07:31:09.537Z,21.43
2018-01-04T07:33:35.481Z,21.41
2018-01-04T07:36:01.434Z,21.40
2018-01-04T07:38:27.369Z,21.40
2018-01-04T07:40:53.306Z,21.47
2018-01-04T07:43:19.245Z,21.45
2018-01-04T07:45:45.213Z,21.50
2018-01-04T07:48:11.182Z,21.48
2018-01-04T07:50:37.137Z,21.47
2018-01-04T07:53:03.114Z,21.50
2018-01-04T07:55:29.046Z,21.56
2018-01-04T07:57:54.986Z,21.46
2018-01-04T08:00:20.930Z,21.63
2018-01-04T08:02:46.873Z,21.51
2018-01-04T08:05:12.819Z,21.54
2018-01-04T08:07:38.767Z,21.61
2018-01-04T08:10:04.705Z,21.59
2018-01-04T08:12:30.642Z,21.56
2018-01-04T08:14:56.625Z,21.54
2018-01-04T08:17:22.657Z,21.61
2018-01-04T08:19:48.687Z,21.50
2018-01-04T08:22:14.629Z,21.51
2018-01-04T08:24:40.582Z,21.58
2018-01-04T08:27:06.524Z,21.56
2018-01-04T08:29:32.470Z,21.57
2018-01-04T08:31:58.415Z,21.59
2018-01-04T08:34:24.393Z,21.65
2018-01-04T08:36:50.328Z,21.69
2018-01-04T08:39:16.298Z,21.72
2018-01-04T08:41:42.237Z,21.65
2018-01-04T08:44:08.173Z,21.71
2018-01-04T08:46:34.118Z,21.69
2018-01-04T08:49:00.142Z,21.64
2018-01-04T08:51:26.105Z,21.67
2018-01-04T08:53:52.033Z,21.60
2018-01-04T08:56:17.997Z,21.76
2018-01-04T08:58:43.984Z,21.67
2018-01-04T09:01:09.953Z,21.61
2018-01-04T09:03:35.914Z,21.67
2018-01-04T09:06:01.965Z,21.68
2018-01-04T09:08:27.909Z,21.58
2018-01-04T09:10:53.857Z,21.59
2018-01-04T09:13:19.810Z,21.58
2018-01-04T09:15:45.756Z,21.59
2018-01-04T09:18:11.709Z,21.58
2018-01-04T09:20:37.661Z,21.63
2018-01-04T09:23:03.602Z,21.56
2018-01-04T09:25:29.589Z,21.60
2018-01-04T09:27:55.526Z,21.63
2018-01-04T09:30:21.476Z,21.68
2018-01-04T09:32:47.426Z,21.60
2018-01-04T09:35:13.370Z,21.61
2018-01-04T09:37:39.345Z,21.64
2018-01-04T09:40:05.342Z,21.76
2018-01-04T09:42:31.289Z,21.75
2018-01-04T09:44:57.244Z,21.88
2018-01-04T09:47:23.258Z,21.85
2018-01-04T09:49:49.237Z,21.59
2018-01-04T09:52:15.245Z,21.69
2018-01-04T09:54:41.258Z,21.61
2018-01-04T09:57:07.205Z,21.65
2018-01-04T09:59:33.239Z,21.60
2018-01-04T10:01:59.206Z,21.62
2018-01-04T10:04:25.154Z,21.60
2018-01-04T10:06:51.090Z,21.61
2018-01-04T10:09:17.043Z,21.58
2018-01-04T10:11:43.024Z,21.65
2018-01-04T10:14:08.961Z,21.66
2018-01-04T10:16:34.933Z,21.64
2018-01-04T10:19:00.881Z,21.67
2018-01-04T10:21:26.829Z,21.69
2018-01-04T10:23:52.795Z,21.70
2018-01-04T10:26:18.765Z,21.73
2018-01-04T10:28:44.732Z,21.78
2018-01-04T10:31:10.694Z,21.75
2018-01-04T10:33:36.647Z,21.77
2018-01-04T10:36:02.589Z,21.72
2018-01-04T10:38:28.569Z,21.81
2018-01-04T10:40:54.482Z,21.77
2018-01-04T10:43:20.461Z,21.72
2018-01-04T10:45:46.418Z,21.67
2018-01-04T10:48:12.386Z,21.71
2018-01-04T10:50:38.357Z,21.66
2018-01-04T10:53:04.374Z,21.71
2018-01-04T10:55:30.341Z,21.69
2018-01-04T10:57:56.304Z,21.66
2018-01-04T11:00:22.278Z,21.66
2018-01-04T11:02:48.214Z,21.64
2018-01-04T11:05:14.231Z,21.69
2018-01-04T11:07:40.142Z,21.61
2018-01-04T11:10:06.137Z,21.65
2018-01-04T11:12:32.123Z,21.57
2018-01-04T11:14:58.230Z,21.65
2018-01-04T11:17:24.226Z,21.69
2018-01-04T11:19:50.135Z,21.72
2018-01-04T11:22:16.311Z,21.83
2018-01-04T11:24:42.249Z,21.64
2018-01-04T11:27:08.199Z,21.82
2018-01-04T11:29:34.234Z,21.86
2018-01-04T11:32:00.184Z,21.87
2018-01-04T11:34:26.142Z,21.84
2018-01-04T11:36:52.117Z,21.75
2018-01-04T11:39:18.065Z,21.79
2018-01-04T11:41:44.007Z,21.77
2018-01-04T11:44:09.966Z,21.79
2018-01-04T11:46:35.898Z,21.75
2018-01-04T11:49:01.841Z,21.73
2018-01-04T11:51:27.797Z,21.71
2018-01-04T11:53:53.745Z,21.70
2018-01-04T11:56:19.691Z,21.74
2018-01-04T11:58:45.691Z,21.69
2018-01-04T12:01:11.693Z,21.80
2018-01-04T12:03:37.651Z,21.90
2018-01-04T12:06:03.600Z,21.75
2018-01-04T12:08:29.636Z,21.83
2018-01-04T12:10:55.557Z,21.81
2018-01-04T12:13:21.497Z,21.78
2018-01-04T12:15:47.457Z,21.72
2018-01-04T12:18:13.382Z,21.69
2018-01-04T12:20:39.344Z,21.79
2018-01-04T12:23:05.281Z,21.72
2018-01-04T12:25:31.257Z,21.77
2018-01-04T12:27:57.202Z,21.73
2018-01-04T12:30:23.160Z,21.76
2018-01-04T12:32:49.109Z,21.73
2018-01-04T12:35:15.061Z,21.77
2018-01-04T12:37:41.011Z,21.75
2018-01-04T12:40:06.968Z,21.69
2018-01-04T12:42:32.928Z,21.73
2018-01-04T12:44:58.869Z,21.79
2018-01-04T12:47:24.817Z,21.81
2018-01-04T12:49:50.766Z,21.77
2018-01-04T12:52:16.716Z,21.78
2018-01-04T12:54:42.701Z,21.97
2018-01-04T12:57:08.649Z,21.84
2018-01-04T12:59:34.596Z,21.83
2018-01-04T13:02:00.552Z,21.88
2018-01-04T13:04:26.497Z,21.86
2018-01-04T13:06:52.530Z,21.90
2018-01-04T13:09:18.485Z,21.80
2018-01-04T13:11:44.465Z,21.90
2018-01-04T13:14:10.409Z,21.86
2018-01-04T13:16:36.461Z,21.81
2018-01-04T13:19:02.397Z,21.81
2018-01-04T13:21:28.406Z,21.81
2018-01-04T13:23:54.530Z,21.75
2018-01-04T13:26:20.430Z,21.75
2018-01-04T13:28:46.503Z,21.86
2018-01-04T13:31:12.453Z,21.77
2018-01-04T13:33:38.449Z,21.84
2018-01-04T13:36:04.391Z,21.83
2018-01-04T13:38:30.340Z,21.87
2018-01-04T13:40:56.318Z,21.90
2018-01-04T13:43:22.221Z,21.95
2018-01-04T13:45:48.194Z,21.88
2018-01-04T13:48:14.142Z,21.91
2018-01-04T13:50:40.113Z,22.00
2018-01-04T13:53:06.237Z,21.97
2018-01-04T13:55:32.198Z,21.92
2018-01-04T13:57:58.145Z,21.93
2018-01-04T14:00:24.145Z,21.88
2018-01-04T14:02:50.167Z,21.87
2018-01-04T14:05:16.110Z,21.96
2018-01-04T14:07:42.101Z,21.89
2018-01-04T14:10:08.058Z,22.01
2018-01-04T14:12:33.998Z,21.99
2018-01-04T14:14:59.966Z,22.00
2018-01-04T14:17:25.926Z,21.89
2018-01-04T14:19:51.884Z,22.02
2018-01-04T14:22:17.918Z,22.07
2018-01-04T14:24:43.927Z,22.05
2018-01-04T14:27:09.960Z,22.02
2018-01-04T14:29:35.998Z,22.05
2018-01-04T14:32:02.035Z,22.10
2018-01-04T14:34:27.994Z,22.01
2018-01-04T14:36:53.934Z,21.88
2018-01-04T14:39:19.890Z,21.94
2018-01-04T14:41:45.951Z,22.03
2018-01-04T14:44:11.890Z,22.03
2018-01-04T14:46:37.836Z,21.92
2018-01-04T14:49:03.801Z,21.97
2018-01-04T14:51:29.705Z,21.90
2018-01-04T14:53:55.758Z,21.90
2018-01-04T14:56:21.724Z,21.88
2018-01-04T14:58:47.667Z,21.87
2018-01-04T15:01:13.609Z,21.91
2018-01-04T15:03:39.627Z,21.93
2018-01-04T15:06:05.587Z,22.01
2018-01-04T15:08:31.529Z,22.01
2018-01-04T15:10:57.480Z,22.01
2018-01-04T15:13:23.415Z,21.96
2018-01-04T15:15:49.353Z,22.03
2018-01-04T15:18:15.358Z,22.07
2018-01-04T15:20:41.319Z,22.00
2018-01-04T15:23:07.272Z,22.04
2018-01-04T15:25:33.208Z,22.04
2018-01-04T15:27:59.253Z,22.08
2018-01-04T15:30:25.200Z,22.01
2018-01-04T15:32:51.195Z,22.01
2018-01-04T15:35:17.132Z,22.05
2018-01-04T15:37:43.077Z,22.02
2018-01-04T15:40:09.022Z,21.98
2018-01-04T15:42:34.961Z,21.98
2018-01-04T15:45:00.902Z,21.89
2018-01-04T15:47:26.845Z,21.94
2018-01-04T15:49:52.798Z,21.88
2018-01-04T15:52:18.754Z,21.86
2018-01-04T15:54:44.725Z,21.82
2018-01-04T15:57:10.688Z,21.87
2018-01-04T15:59:36.654Z,21.91
2018-01-04T16:02:02.611Z,21.97
2018-01-04T16:04:28.549Z,22.10
2018-01-04T16:06:54.614Z,22.04
2018-01-04T16:09:20.621Z,22.07
2018-01-04T16:11:46.665Z,22.08
2018-01-04T16:14:12.614Z,22.10
2018-01-04T16:16:38.578Z,22.05
2018-01-04T16:19:04.546Z,22.05
2018-01-04T16:21:30.519Z,21.98
2018-01-04T16:23:56.485Z,22.00
2018-01-04T16:26:22.441Z,21.96
2018-01-04T16:28:48.437Z,21.96
2018-01-04T16:31:14.395Z,21.95
2018-01-04T16:33:40.362Z,21.98
2018-01-04T16:36:06.371Z,21.97
2018-01-04T16:38:32.294Z,21.88
2018-01-04T16:40:58.248Z,21.94
2018-01-04T16:43:24.218Z,21.93
2018-01-04T16:45:50.182Z,22.01
2018-01-04T16:48:16.149Z,21.96
2018-01-04T16:50:42.109Z,21.95
2018-01-04T16:53:08.145Z,21.96
2018-01-04T16:55:34.202Z,22.02
2018-01-04T16:58:00.217Z,21.97
2018-01-04T17:00:26.200Z,22.03
2018-01-04T17:02:52.110Z,22.01
2018-01-04T17:05:18.069Z,22.00
2018-01-04T17:07:44.035Z,21.99
2018-01-04T17:10:10.020Z,21.92
2018-01-04T17:12:36.050Z,21.94
2018-01-04T17:15:02.019Z,21.88
2018-01-04T17:17:27.989Z,21.93
2018-01-04T17:19:54.060Z,21.96
2018-01-04T17:22:20.059Z,21.99
2018-01-04T17:24:45.998Z,22.01
2018-01-04T17:27:11.945Z,21.94
2018-01-04T17:29:37.930Z,21.93
2018-01-04T17:32:03.889Z,22.01
2018-01-04T17:34:29.860Z,22.03
2018-01-04T17:36:55.806Z,22.04
2018-01-04T17:39:21.757Z,21.99
2018-01-04T17:41:47.695Z,22.04
2018-01-04T17:44:13.644Z,21.99
2018-01-04T17:46:39.629Z,22.08
2018-01-04T17:49:05.577Z,22.01
2018-01-04T17:51:31.553Z,22.06
2018-01-04T17:53:57.504Z,22.02
2018-01-04T17:56:23.459Z,21.98
2018-01-04T17:58:49.466Z,21.98
2018-01-04T18:01:15.410Z,22.05
2018-01-04T18:03:41.375Z,21.90
2018-01-04T18:06:07.668Z,22.01
2018-01-04T18:08:33.603Z,21.93
2018-01-04T18:10:59.550Z,21.97
2018-01-04T18:13:25.503Z,21.99
2018-01-04T18:15:51.465Z,21.84
2018-01-04T18:18:17.425Z,21.87
2018-01-04T18:20:43.369Z,21.80
2018-01-04T18:23:09.321Z,21.81
2018-01-04T18:25:35.277Z,21.87
2018-01-04T18:28:01.230Z,21.88
2018-01-04T18:30:27.184Z,21.91
2018-01-04T18:32:53.131Z,21.87
2018-01-04T18:35:19.074Z,21.87
2018-01-04T18:37:45.022Z,21.90
2018-01-04T18:40:10.969Z,21.83
2018-01-04T18:42:36.957Z,21.84
2018-01-04T18:45:03.004Z,21.91
2018-01-04T18:47:28.953Z,21.83
2018-01-04T18:49:54.910Z,21.81
2018-01-04T18:52:20.845Z,21.77
2018-01-04T18:54:46.926Z,21.86
2018-01-04T18:57:12.897Z,21.72
2018-01-04T18:59:38.814Z,21.84
2018-01-04T19:02:04.785Z,21.82
2018-01-04T19:04:30.741Z,21.89
2018-01-04T19:06:56.741Z,21.87
2018-01-04T19:09:22.630Z,21.98
2018-01-04T19:11:48.590Z,21.92
2018-01-04T19:14:14.548Z,22.01
2018-01-04T19:16:40.626Z,22.00
2018-01-04T19:19:06.832Z,21.99
2018-01-04T19:21:32.790Z,22.01
2018-01-04T19:23:58.774Z,22.00
2018-01-04T19:26:24.748Z,21.99
2018-01-04T19:28:50.670Z,21.98
2018-01-04T19:31:16.633Z,22.03
2018-01-04T19:33:42.761Z,21.96
2018-01-04T19:36:08.732Z,22.02
2018-01-04T19:38:34.730Z,21.83
2018-01-04T19:41:00.699Z,21.86
2018-01-04T19:43:26.675Z,21.95
2018-01-04T19:45:52.629Z,21.90
2018-01-04T19:48:18.566Z,21.87
2018-01-04T19:50:44.538Z,21.88
2018-01-04T19:53:10.487Z,21.86
2018-01-04T19:55:36.441Z,21.87
2018-01-04T19:58:02.389Z,21.90
2018-01-04T20:00:28.349Z,21.97
2018-01-04T20:02:54.289Z,21.85
2018-01-04T20:05:20.379Z,21.84
2018-01-04T20:07:46.327Z,21.85
2018-01-04T20:10:12.271Z,21.81
2018-01-04T20:12:38.217Z,21.88
2018-01-04T20:15:04.174Z,21.89
2018-01-04T20:17:30.169Z,21.72
2018-01-04T20:19:56.131Z,21.79
2018-01-04T20:22:22.088Z,21.77
2018-01-04T20:24:48.198Z,21.78
2018-01-04T20:27:14.158Z,21.72
2018-01-04T20:29:40.109Z,21.80
2018-01-04T20:32:06.084Z,21.78
2018-01-04T20:34:32.056Z,21.81
2018-01-04T20:36:58.082Z,21.77
2018-01-04T20:39:24.120Z,21.77
2018-01-04T20:41:50.181Z,21.79
2018-01-04T20:44:16.148Z,21.81
2018-01-04T20:46:42.228Z,21.80
2018-01-04T20:49:08.222Z,21.72
2018-01-04T20:51:34.267Z,21.78
2018-01-04T20:54:00.298Z,21.76
2018-01-04T20:56:26.329Z,21.89
2018-01-04T20:58:52.277Z,21.92
2018-01-04T21:01:18.337Z,21.79
2018-01-04T21:03:44.241Z,21.77
2018-01-04T21:06:10.193Z,21.83
2018-01-04T21:08:36.237Z,21.79
2018-01-04T21:11:02.282Z,21.77
2018-01-04T21:13:28.303Z,21.80
2018-01-04T21:15:54.353Z,21.76
2018-01-04T21:18:20.441Z,21.71
2018-01-04T21:20:46.503Z,21.77
2018-01-04T21:23:12.465Z,21.74
2018-01-04T21:25:38.423Z,21.76
2018-01-04T21:28:04.397Z,21.74
2018-01-04T21:30:30.373Z,21.77
2018-01-04T21:32:56.343Z,21.76
2018-01-04T21:35:22.291Z,21.81
2018-01-04T21:37:48.276Z,21.77
2018-01-04T21:40:14.225Z,21.77
2018-01-04T21:42:40.163Z,21.92
2018-01-04T21:45:06.122Z,21.90
2018-01-04T21:47:32.083Z,21.74
2018-01-04T21:49:58.140Z,21.72
2018-01-04T21:52:24.085Z,21.82
2018-01-04T21:54:50.046Z,21.70
2018-01-04T21:57:15.986Z,21.83
2018-01-04T21:59:42.030Z,21.69
2018-01-04T22:02:07.972Z,21.75
2018-01-04T22:04:33.947Z,21.73
2018-01-04T22:06:59.954Z,21.71
2018-01-04T22:09:25.953Z,21.59
2018-01-04T22:11:51.966Z,21.52
2018-01-04T22:14:17.953Z,21.55
2018-01-04T22:16:44.243Z,21.61
2018-01-04T22:19:15.290Z,21.47
2018-01-04T22:21:42.612Z,21.39
2018-01-04T22:24:10.437Z,21.42
2018-01-04T22:26:36.418Z,21.45
2018-01-04T22:29:02.412Z,21.44
2018-01-04T22:31:28.798Z,21.39
2018-01-04T22:33:54.889Z,21.35
2018-01-04T22:36:20.869Z,21.42
2018-01-04T22:38:46.893Z,21.46
2018-01-04T22:41:12.910Z,21.36
2018-01-04T22:43:38.852Z,21.30
2018-01-04T22:46:04.890Z,21.43
2018-01-04T22:48:30.859Z,21.44
2018-01-04T22:50:56.884Z,21.44
2018-01-04T22:53:23.972Z,21.40
2018-01-04T22:55:50.302Z,21.37
2018-01-04T22:58:16.282Z,21.31
2018-01-04T23:00:42.740Z,21.27
2018-01-04T23:03:08.741Z,21.24
2018-01-04T23:05:34.729Z,21.24
2018-01-04T23:08:05.183Z,21.29
2018-01-04T23:10:31.172Z,21.25
2018-01-04T23:12:57.200Z,21.24
2018-01-04T23:15:23.219Z,21.17
2018-01-04T23:17:49.172Z,21.26
2018-01-04T23:20:15.162Z,21.26
2018-01-04T23:22:41.127Z,21.24
2018-01-04T23:25:07.130Z,21.22
2018-01-04T23:27:36.251Z,21.25
2018-01-04T23:30:02.246Z,21.24
2018-01-04T23:32:28.231Z,21.22
2018-01-04T23:34:54.253Z,21.24
2018-01-04T23:37:20.227Z,21.28
2018-01-04T23:39:46.227Z,21.33
2018-01-04T23:42:12.295Z,21.27
2018-01-04T23:44:38.269Z,21.32
2018-01-04T23:47:04.241Z,21.34
2018-01-04T23:49:30.259Z,21.23
2018-01-04T23:51:56.249Z,21.20
2018-01-04T23:54:22.219Z,21.18
2018-01-04T23:56:48.213Z,21.12
2018-01-04T23:59:14.240Z,21.21
